Time;durP1;ratioP1;P1;durP2;ratioP2;P2;SDS_P1;SDS_P2;PMS_P1;PMS_P2;Temp;Humidity;BMP_temperature;BMP_pressure;BME280_temperature;BME280_humidity;BME280_pressure;Samples;Min_cycle;Max_cycle;Signal;HPM_P1;HPM_P2
2023/05/19 00:01:36;;;;;;;18.80;14.90;;;;;;;11.43;63.17;101538.92;108687;1282;21986;-84
2023/05/19 00:04:07;;;;;;;18.30;15.00;;;;;;;11.45;63.15;101539.41;108622;1281;21991;-84
2023/05/19 00:06:40;;;;;;;20.70;15.50;;;;;;;11.46;63.05;101535.04;108750;1281;21999;-86
2023/05/19 00:09:11;;;;;;;16.20;13.40;;;;;;;11.46;63.20;101529.79;108772;1282;23619;-84
2023/05/19 00:11:42;;;;;;;17.90;13.10;;;;;;;11.47;62.99;101529.07;108697;1281;23706;-86
2023/05/19 00:14:13;;;;;;;15.80;11.80;;;;;;;11.47;63.15;101524.02;109193;1275;21983;-84
2023/05/19 00:16:50;;;;;;;15.50;12.60;;;;;;;11.43;63.08;101521.33;109044;1275;21990;-84
2023/05/19 00:19:23;;;;;;;13.80;10.30;;;;;;;11.41;63.19;101519.80;108900;1280;24540;-83
2023/05/19 00:21:57;;;;;;;18.40;11.30;;;;;;;11.41;63.24;101523.12;108854;1277;22460;-84
2023/05/19 00:24:34;;;;;;;13.40;10.50;;;;;;;11.43;63.28;101525.69;108916;1280;23688;-85
2023/05/19 00:27:13;;;;;;;16.40;11.00;;;;;;;11.44;63.37;101524.27;108860;1276;22003;-83
2023/05/19 00:29:46;;;;;;;12.30;10.00;;;;;;;11.45;63.32;101525.98;108759;1286;23055;-83
2023/05/19 00:32:17;;;;;;;13.60;10.70;;;;;;;11.45;63.12;101524.60;108511;1289;22015;-82
2023/05/19 00:34:48;;;;;;;11.80;9.80;;;;;;;11.46;63.33;101526.66;108140;1294;21788;-83
2023/05/19 00:37:24;;;;;;;15.10;10.40;;;;;;;11.46;63.44;101528.05;107575;1289;298102;-82
2023/05/19 00:39:54;;;;;;;14.00;10.80;;;;;;;11.44;63.39;101523.75;108204;1289;22476;-82
2023/05/19 00:42:38;;;;;;;11.90;10.00;;;;;;;11.44;63.21;101528.62;108407;1289;24096;-84
2023/05/19 00:45:08;;;;;;;12.30;9.90;;;;;;;11.39;63.05;101525.26;108426;1289;23650;-84
2023/05/19 00:47:39;;;;;;;13.20;10.50;;;;;;;11.34;63.14;101523.45;108508;1285;23657;-83
2023/05/19 00:50:09;;;;;;;13.50;11.10;;;;;;;11.31;63.35;101520.38;108535;1286;22002;-82
2023/05/19 00:52:40;;;;;;;14.40;10.70;;;;;;;11.27;63.33;101518.02;108179;1286;24550;-82
2023/05/19 00:55:13;;;;;;;11.40;9.80;;;;;;;11.22;63.35;101516.73;108534;1286;21905;-84
2023/05/19 00:57:49;;;;;;;15.30;11.10;;;;;;;11.18;63.69;101515.61;108617;1286;21924;-82
2023/05/19 01:00:20;;;;;;;14.30;11.00;;;;;;;11.13;63.53;101518.52;108550;1286;22093;-85
2023/05/19 01:02:54;;;;;;;13.10;9.60;;;;;;;11.06;63.65;101521.60;108687;1286;22922;-81
2023/05/19 01:05:28;;;;;;;12.10;10.10;;;;;;;11.01;63.73;101520.85;108571;1286;24926;-82
2023/05/19 01:08:04;;;;;;;16.50;11.20;;;;;;;10.99;64.13;101513.55;108624;1281;22951;-82
2023/05/19 01:10:42;;;;;;;12.90;10.50;;;;;;;10.99;64.26;101520.88;109066;1275;22254;-82
2023/05/19 01:13:12;;;;;;;15.10;12.50;;;;;;;11.00;64.38;101518.96;108943;1281;21996;-84
2023/05/19 01:16:29;;;;;;;13.70;11.70;;;;;;;10.99;64.40;101519.67;108961;1281;22747;-83
2023/05/19 01:19:40;;;;;;;19.20;14.00;;;;;;;10.99;64.59;101514.28;108947;1281;21998;-82
2023/05/19 01:22:45;;;;;;;15.60;13.90;;;;;;;10.98;64.66;101512.02;109140;1281;22016;-83
2023/05/19 01:25:49;;;;;;;18.80;15.00;;;;;;;11.01;64.67;101510.76;108913;1281;23088;-85
2023/05/19 01:28:43;;;;;;;23.00;19.00;;;;;;;11.02;64.62;101515.42;109104;1280;22744;-83
2023/05/19 01:31:15;;;;;;;19.80;16.80;;;;;;;11.01;64.76;101514.74;109037;1274;23046;-83
2023/05/19 01:33:48;;;;;;;24.40;18.30;;;;;;;11.04;64.68;101514.86;109331;1275;24346;-83
2023/05/19 01:36:21;;;;;;;22.10;19.60;;;;;;;11.08;64.55;101521.40;109271;1275;22004;-83
2023/05/19 01:38:56;;;;;;;25.20;20.70;;;;;;;11.07;64.67;101523.70;109191;1273;22091;-82
2023/05/19 01:41:28;;;;;;;28.80;23.10;;;;;;;11.07;64.88;101523.52;109337;1275;22400;-83
2023/05/19 01:43:59;;;;;;;27.60;23.00;;;;;;;11.09;64.87;101524.35;109290;1275;21989;-83
2023/05/19 01:46:29;;;;;;;27.10;22.90;;;;;;;11.07;64.85;101522.46;109291;1275;22752;-83
2023/05/19 01:49:00;;;;;;;24.90;22.00;;;;;;;11.09;65.05;101524.85;109284;1275;23070;-83
2023/05/19 01:51:32;;;;;;;25.20;22.50;;;;;;;11.12;65.07;101527.40;109265;1275;22007;-83
2023/05/19 01:54:02;;;;;;;26.70;23.80;;;;;;;11.15;65.17;101526.99;109203;1275;21988;-85
2023/05/19 01:56:59;;;;;;;29.70;24.70;;;;;;;11.18;65.09;101529.89;109205;1279;24244;-84
2023/05/19 01:59:51;;;;;;;28.00;23.40;;;;;;;11.18;64.98;101525.18;109104;1279;22006;-84
2023/05/19 02:02:47;;;;;;;25.90;23.00;;;;;;;11.20;65.12;101528.96;109193;1277;23657;-83
2023/05/19 02:05:49;;;;;;;23.10;20.70;;;;;;;11.21;65.19;101528.77;108944;1278;22004;-83
2023/05/19 02:08:33;;;;;;;25.50;19.40;;;;;;;11.21;65.22;101527.20;108748;1284;21997;-82
2023/05/19 02:11:13;;;;;;;20.30;18.10;;;;;;;11.23;65.27;101528.56;108377;1288;23766;-82
2023/05/19 02:13:49;;;;;;;;;;;;;;;11.25;65.27;101532.36;108537;1285;23062;-84
2023/05/19 02:16:39;;;;;;;23.10;19.10;;;;;;;11.17;65.55;101532.18;108562;1285;22099;-83
2023/05/19 02:19:26;;;;;;;22.10;19.00;;;;;;;11.19;65.54;101530.57;108619;1285;22591;-82
2023/05/19 02:22:04;;;;;;;26.10;20.80;;;;;;;11.21;65.72;101533.31;108169;1290;22407;-84
2023/05/19 02:24:43;;;;;;;23.60;17.90;;;;;;;11.26;65.74;101533.71;108394;1291;22092;-80
2023/05/19 02:27:17;;;;;;;27.00;20.10;;;;;;;11.31;65.54;101535.02;108563;1286;22027;-80
2023/05/19 02:29:46;;;;;;;22.50;19.80;;;;;;;11.34;65.60;101534.59;108559;1282;23625;-78
2023/05/19 02:32:17;;;;;;;24.60;19.20;;;;;;;11.37;65.50;101534.54;108666;1281;23065;-82
2023/05/19 02:34:52;;;;;;;23.30;18.40;;;;;;;11.37;65.53;101535.23;108589;1287;23155;-82
2023/05/19 02:37:38;;;;;;;21.10;18.10;;;;;;;11.40;65.62;101532.03;108240;1290;22557;-82
2023/05/19 02:40:09;;;;;;;25.20;19.00;;;;;;;11.40;65.54;101533.25;108298;1288;22012;-83
2023/05/19 02:42:46;;;;;;;21.50;19.20;;;;;;;11.41;65.51;101530.78;108466;1288;22064;-84
2023/05/19 02:45:17;;;;;;;21.80;18.80;;;;;;;11.40;65.36;101524.19;108379;1288;21996;-85
2023/05/19 02:47:47;;;;;;;27.80;21.80;;;;;;;11.43;65.42;101528.30;108469;1288;21999;-84
2023/05/19 02:50:21;;;;;;;30.50;22.40;;;;;;;11.44;65.50;101527.58;108558;1288;23063;-84
2023/05/19 02:52:52;;;;;;;33.70;22.90;;;;;;;11.45;65.59;101526.16;108657;1281;24442;-84
2023/05/19 02:55:23;;;;;;;30.20;22.20;;;;;;;11.47;65.57;101525.94;108840;1276;21976;-84
2023/05/19 02:57:53;;;;;;;28.10;20.80;;;;;;;11.49;65.65;101519.45;109286;1276;23078;-84
2023/05/19 03:00:24;;;;;;;26.40;21.60;;;;;;;11.50;65.56;101516.63;108989;1276;22655;-82
2023/05/19 03:02:54;;;;;;;31.00;21.10;;;;;;;11.48;65.47;101517.91;109180;1275;23097;-82
2023/05/19 03:05:25;;;;;;;23.00;19.50;;;;;;;11.48;65.61;101518.41;109090;1275;23009;-81
2023/05/19 03:07:56;;;;;;;38.50;23.30;;;;;;;11.49;65.60;101516.84;109248;1274;21988;-80
2023/05/19 03:10:26;;;;;;;27.80;21.50;;;;;;;11.48;65.69;101516.67;109247;1276;22051;-80
2023/05/19 03:12:55;;;;;;;34.70;24.40;;;;;;;11.49;65.81;101514.39;109413;1274;22030;-80
2023/05/19 03:15:25;;;;;;;30.50;23.40;;;;;;;11.49;65.61;101517.86;109413;1275;22359;-81
2023/05/19 03:17:54;;;;;;;28.30;20.20;;;;;;;11.49;65.83;101514.23;109343;1275;22025;-82
2023/05/19 03:20:26;;;;;;;;;;;;;;;11.49;65.71;101512.31;109315;1275;22247;-81
2023/05/19 03:23:16;;;;;;;27.60;19.70;;;;;;;11.38;65.92;101506.11;109176;1275;24488;-81
2023/05/19 03:25:46;;;;;;;21.30;17.30;;;;;;;11.40;66.08;101510.95;109264;1275;22003;-80
2023/05/19 03:28:19;;;;;;;24.40;16.70;;;;;;;11.42;66.05;101511.25;109410;1275;22013;-81
2023/05/19 03:30:49;;;;;;;24.90;17.10;;;;;;;11.45;66.11;101512.92;109378;1274;22017;-80
2023/05/19 03:33:28;;;;;;;20.60;16.80;;;;;;;11.48;66.07;101515.65;109402;1275;22009;-81
2023/05/19 03:35:59;;;;;;;24.70;17.00;;;;;;;11.50;66.13;101511.75;109008;1279;22004;-80
2023/05/19 03:38:36;;;;;;;22.90;16.80;;;;;;;11.52;66.13;101511.71;108602;1283;22004;-80
2023/05/19 03:41:06;;;;;;;23.00;17.30;;;;;;;11.55;66.09;101511.83;108553;1285;22121;-80
2023/05/19 03:43:36;;;;;;;21.10;17.00;;;;;;;11.58;66.00;101515.93;108783;1283;23186;-81
2023/05/19 03:46:06;;;;;;;25.50;19.00;;;;;;;11.60;66.14;101518.14;108671;1283;24178;-81
2023/05/19 03:48:55;;;;;;;24.90;18.40;;;;;;;11.61;66.16;101516.55;108635;1283;22037;-82
2023/05/19 03:51:37;;;;;;;24.80;18.60;;;;;;;11.63;66.13;101515.28;108276;1289;21959;-82
2023/05/19 03:54:41;;;;;;;;;;;;;;;;;;;;;
2023/05/19 03:58:42;;;;;;;;;;;;;;;;;;;;;
2023/05/19 04:01:29;;;;;;;25.90;19.80;;;;;;;11.65;66.08;101517.69;108521;1287;22453;-79
2023/05/19 04:04:09;;;;;;;22.00;18.40;;;;;;;11.67;66.14;101518.16;108495;1287;22778;-79
2023/05/19 04:07:00;;;;;;;24.10;18.40;;;;;;;11.68;66.03;101516.74;108664;1287;22047;-79
2023/05/19 04:10:33;;;;;;;23.90;19.70;;;;;;;11.68;66.04;101517.27;108741;1281;22031;-79
2023/05/19 04:13:40;;;;;;;24.90;20.00;;;;;;;11.68;66.30;101522.50;108667;1284;22053;-80
2023/05/19 04:16:59;;;;;;;31.80;21.40;;;;;;;11.70;66.47;101521.92;108742;1284;22301;-80
2023/05/19 04:19:49;;;;;;;;;;;;;;;;;;;;;
2023/05/19 04:23:45;;;;;;;31.00;27.70;;;;;;;11.76;66.50;101514.63;108976;1280;21996;-80
2023/05/19 04:27:27;;;;;;;32.20;28.90;;;;;;;11.83;66.68;101520.22;108825;1280;22010;-80
2023/05/19 04:29:46;;;;;;;41.40;37.10;;;;;;;11.88;66.61;101521.15;108588;1285;22290;-81
2023/05/19 04:32:58;;;;;;;46.70;42.40;;;;;;;11.90;66.48;101521.98;108971;1269;23058;-81
2023/05/19 04:36:20;;;;;;;38.80;35.00;;;;;;;11.97;66.56;101520.09;108789;1281;22027;-80
2023/05/19 04:39:11;;;;;;;45.30;41.40;;;;;;;12.02;66.46;101523.10;108819;1281;21966;-81
2023/05/19 04:42:08;;;;;;;37.60;33.70;;;;;;;12.07;66.36;101521.23;108837;1281;22022;-80
2023/05/19 04:45:31;;;;;;;24.90;22.10;;;;;;;12.05;66.10;101522.14;108893;1277;22003;-81
2023/05/19 04:48:14;;;;;;;21.90;19.30;;;;;;;12.04;66.20;101526.35;109150;1275;21994;-81
2023/05/19 04:51:09;;;;;;;19.00;16.90;;;;;;;12.04;66.24;101528.80;109228;1275;22063;-81
2023/05/19 04:54:38;;;;;;;20.00;17.70;;;;;;;12.00;66.25;101526.45;108931;1281;22093;-81
2023/05/19 04:57:28;;;;;;;20.50;18.00;;;;;;;12.00;66.28;101526.98;108948;1281;22020;-80
2023/05/19 05:00:16;;;;;;;21.00;17.80;;;;;;;12.04;66.55;101523.23;108833;1277;22158;-79
2023/05/19 05:03:11;;;;;;;20.80;18.70;;;;;;;12.08;66.65;101522.06;108956;1281;22079;-81
2023/05/19 05:05:49;;;;;;;23.40;19.60;;;;;;;12.16;66.73;101523.60;108585;1284;21980;-80
2023/05/19 05:08:44;;;;;;;;;;;;;;;;;;;;;
2023/05/19 05:12:06;;;;;;;27.00;24.10;;;;;;;12.27;66.70;101518.42;108883;1281;22001;-80
2023/05/19 05:15:03;;;;;;;20.60;18.60;;;;;;;12.33;66.68;101521.62;108940;1280;21986;-80
2023/05/19 05:18:12;;;;;;;19.60;17.60;;;;;;;12.40;66.69;101517.91;108922;1281;23634;-81
2023/05/19 05:21:03;;;;;;;;;;;;;;;;;;;;;
2023/05/19 05:24:21;;;;;;;;;;;;;;;;;;;;;
2023/05/19 05:28:05;;;;;;;;;;;;;;;;;;;;;
2023/05/19 05:31:19;;;;;;;;;;;;;;;;;;;;;
2023/05/19 05:35:15;;;;;;;11.10;9.50;;;;;;;12.83;65.93;101518.13;108551;1288;21997;-80
2023/05/19 05:38:59;;;;;;;17.40;12.70;;;;;;;12.92;65.49;101516.46;107923;1292;22305;-81
2023/05/19 05:41:33;;;;;;;19.20;17.50;;;;;;;13.01;65.00;101521.46;107574;1297;23100;-80
2023/05/19 05:44:22;;;;;;;25.80;23.50;;;;;;;13.03;64.52;101519.84;107681;1297;22020;-80
2023/05/19 05:47:43;;;;;;;;;;;;;;;;;;;;;
2023/05/19 05:50:19;;;;;;;27.40;24.70;;;;;;;13.05;63.92;101525.52;107450;1300;21985;-80
2023/05/19 05:53:18;;;;;;;24.30;20.60;;;;;;;13.04;63.76;101524.33;107611;1292;23241;-80
2023/05/19 05:57:04;;;;;;;;;;;;;;;;;;;;;
2023/05/19 05:59:55;;;;;;;11.50;10.20;;;;;;;12.97;63.56;101526.46;108868;1281;23142;-80
2023/05/19 06:03:29;;;;;;;13.60;10.10;;;;;;;12.90;63.59;101525.43;108952;1281;23190;-79
2023/05/19 06:06:32;;;;;;;14.00;9.40;;;;;;;12.82;63.43;101522.70;108214;1288;22023;-79
2023/05/19 06:09:34;;;;;;;12.30;9.10;;;;;;;12.78;63.54;101524.74;108499;1285;22008;-82
2023/05/19 06:12:25;;;;;;;11.30;9.30;;;;;;;12.75;63.47;101528.33;108660;1285;22743;-80
2023/05/19 06:15:05;;;;;;;10.40;9.20;;;;;;;12.70;63.58;101532.64;108766;1285;22019;-81
2023/05/19 06:18:04;;;;;;;13.10;10.30;;;;;;;12.63;63.92;101532.14;108612;1285;22016;-80
2023/05/19 06:20:41;;;;;;;13.70;10.50;;;;;;;12.65;64.11;101532.42;108758;1285;21737;-82
2023/05/19 06:23:30;;;;;;;13.20;11.80;;;;;;;12.68;64.40;101535.51;108504;1280;21983;-81
2023/05/19 06:26:21;;;;;;;12.80;10.90;;;;;;;12.71;64.66;101536.45;108720;1285;21998;-80
2023/05/19 06:29:11;;;;;;;15.70;11.40;;;;;;;12.77;64.78;101532.64;108507;1287;23682;-81
2023/05/19 06:31:59;;;;;;;12.40;11.10;;;;;;;12.78;65.00;101535.58;108480;1287;24059;-85
2023/05/19 06:34:33;;;;;;;9.80;7.10;;;;;;;12.81;64.72;101535.65;108414;1287;22029;-78
2023/05/19 06:37:08;;;;;;;8.90;6.70;;;;;;;12.76;64.50;101539.79;108349;1287;23762;-79
2023/05/19 06:39:41;;;;;;;7.80;7.00;;;;;;;12.69;64.39;101542.81;108163;1286;22002;-80
2023/05/19 06:42:11;;;;;;;8.40;6.40;;;;;;;12.64;64.26;101547.14;108130;1290;23624;-77
2023/05/19 06:45:11;;;;;;;8.10;6.30;;;;;;;12.59;64.64;101549.70;108183;1287;21997;-77
2023/05/19 06:47:43;;;;;;;7.90;6.60;;;;;;;12.58;64.72;101543.62;108514;1282;24470;-75
2023/05/19 06:50:13;;;;;;;7.50;6.00;;;;;;;12.63;64.68;101549.78;108631;1272;23060;-76
2023/05/19 06:52:45;;;;;;;6.20;5.30;;;;;;;12.65;64.62;101553.21;108534;1282;22477;-77
2023/05/19 06:55:24;;;;;;;9.30;6.30;;;;;;;12.68;64.52;101556.11;108286;1286;21989;-80
2023/05/19 06:58:08;;;;;;;7.70;5.30;;;;;;;12.66;64.46;101552.83;108524;1281;22008;-76
2023/05/19 07:00:38;;;;;;;6.50;5.30;;;;;;;12.68;64.20;101552.09;108641;1281;22126;-77
2023/05/19 07:03:10;;;;;;;7.30;4.80;;;;;;;12.63;63.89;101548.20;108612;1270;22066;-75
2023/05/19 07:05:40;;;;;;;11.60;6.40;;;;;;;12.64;63.90;101553.23;108609;1281;24488;-76
2023/05/19 07:08:12;;;;;;;10.70;5.80;;;;;;;12.63;63.91;101554.50;108605;1281;22937;-77
2023/05/19 07:10:41;;;;;;;6.70;5.90;;;;;;;12.59;63.82;101547.44;108265;1287;24381;-76
2023/05/19 07:13:13;;;;;;;;;;;;;;;12.59;63.55;101544.31;108306;1282;23071;-76
2023/05/19 07:15:47;;;;;;;8.60;5.10;;;;;;;12.49;64.02;101542.82;108479;1280;21995;-76
2023/05/19 07:18:18;;;;;;;6.70;5.30;;;;;;;12.51;63.93;101543.98;108411;1285;23058;-75
2023/05/19 07:20:48;;;;;;;10.90;6.20;;;;;;;12.55;63.84;101545.99;108441;1285;22003;-77
2023/05/19 07:23:17;;;;;;;7.80;4.20;;;;;;;12.61;63.95;101546.51;108326;1285;24311;-78
2023/05/19 07:25:47;;;;;;;5.70;4.20;;;;;;;12.68;63.76;101545.27;108444;1285;24387;-77
2023/05/19 07:28:16;;;;;;;13.10;5.90;;;;;;;12.71;63.44;101547.64;108440;1285;23647;-76
2023/05/19 07:30:55;;;;;;;6.20;4.40;;;;;;;12.74;63.42;101555.77;108055;1291;22996;-78
2023/05/19 07:33:26;;;;;;;7.90;4.10;;;;;;;12.82;63.18;101561.48;108343;1288;22146;-78
2023/05/19 07:36:00;;;;;;;7.70;4.00;;;;;;;12.89;63.12;101561.81;108597;1281;23091;-81
2023/05/19 07:38:33;;;;;;;5.00;3.90;;;;;;;12.96;62.67;101560.58;109038;1279;22022;-81
2023/05/19 07:41:10;;;;;;;9.30;3.80;;;;;;;12.94;62.42;101562.39;108412;1287;22003;-78
2023/05/19 07:43:43;;;;;;;6.80;4.70;;;;;;;12.93;62.28;101565.38;108289;1287;23071;-78
2023/05/19 07:46:27;;;;;;;7.60;4.30;;;;;;;12.91;62.17;101565.77;108492;1278;22007;-79
2023/05/19 07:49:32;;;;;;;8.10;4.40;;;;;;;12.84;61.90;101568.05;108496;1281;23719;-79
2023/05/19 07:52:08;;;;;;;4.40;3.20;;;;;;;12.79;61.66;101563.30;108592;1281;23615;-78
2023/05/19 07:54:38;;;;;;;6.00;4.20;;;;;;;12.76;61.74;101557.98;108670;1281;22757;-79
2023/05/19 07:57:08;;;;;;;5.00;3.50;;;;;;;12.78;61.83;101555.47;108799;1281;23064;-79
2023/05/19 07:59:42;;;;;;;5.10;4.00;;;;;;;12.81;61.88;101552.61;108877;1275;22457;-79
2023/05/19 08:02:14;;;;;;;7.90;4.90;;;;;;;12.83;61.73;101552.54;109014;1275;23682;-77
2023/05/19 08:04:48;;;;;;;10.00;3.90;;;;;;;12.86;61.63;101557.17;109068;1275;21962;-78
2023/05/19 08:07:18;;;;;;;5.00;3.10;;;;;;;12.88;61.55;101552.24;109157;1275;23003;-77
2023/05/19 08:09:53;;;;;;;5.20;3.90;;;;;;;12.90;61.38;101542.58;109027;1275;21998;-78
2023/05/19 08:12:25;;;;;;;7.50;4.10;;;;;;;12.98;61.63;101541.83;109015;1271;22066;-78
2023/05/19 08:14:55;;;;;;;4.80;3.60;;;;;;;13.05;61.71;101545.27;109011;1262;22085;-78
2023/05/19 08:17:29;;;;;;;6.10;4.00;;;;;;;13.13;61.29;101539.65;108636;1280;22020;-78
2023/05/19 08:20:07;;;;;;;5.30;3.80;;;;;;;13.15;61.07;101544.82;108786;1280;23782;-79
2023/05/19 08:22:42;;;;;;;4.40;3.40;;;;;;;13.15;60.74;101543.95;108765;1281;21989;-78
2023/05/19 08:25:12;;;;;;;11.00;5.10;;;;;;;13.16;60.69;101544.77;108370;1287;23724;-79
2023/05/19 08:27:42;;;;;;;10.20;4.70;;;;;;;13.22;60.48;101545.66;108459;1287;22001;-77
2023/05/19 08:30:15;;;;;;;5.10;3.20;;;;;;;13.19;60.32;101543.47;108329;1287;21995;-78
2023/05/19 08:32:47;;;;;;;8.10;3.60;;;;;;;13.22;60.44;101543.20;108390;1287;22032;-78
2023/05/19 08:35:17;;;;;;;;;;;;;;;13.31;60.58;101543.86;108547;1287;23719;-78
2023/05/19 08:37:54;;;;;;;17.40;6.00;;;;;;;13.35;60.75;101538.66;108128;1291;21996;-77
2023/05/19 08:40:35;;;;;;;10.70;3.60;;;;;;;13.38;60.09;101545.02;108025;1291;22069;-78
2023/05/19 08:43:06;;;;;;;8.40;3.80;;;;;;;13.39;59.86;101545.88;108248;1281;23657;-78
2023/05/19 08:45:47;;;;;;;6.00;3.30;;;;;;;13.39;59.74;101544.46;108656;1280;21992;-77
2023/05/19 08:48:41;;;;;;;6.40;3.70;;;;;;;13.36;59.59;101545.98;108642;1280;23085;-77
2023/05/19 08:51:32;;;;;;;7.40;3.40;;;;;;;13.34;59.45;101542.36;108675;1281;22029;-78
2023/05/19 08:54:17;;;;;;;6.50;3.10;;;;;;;13.33;59.45;101541.17;108385;1286;21992;-77
2023/05/19 08:56:52;;;;;;;6.10;3.60;;;;;;;13.31;59.44;101539.29;108353;1286;23039;-78
2023/05/19 08:59:55;;;;;;;5.00;3.70;;;;;;;13.35;59.51;101540.75;107855;1291;22005;-78
2023/05/19 09:02:26;;;;;;;5.70;3.20;;;;;;;13.36;59.25;101540.91;107860;1291;23018;-80
2023/05/19 09:04:57;;;;;;;5.60;2.80;;;;;;;13.34;58.97;101543.75;107704;1295;22105;-78
2023/05/19 09:07:30;;;;;;;5.60;3.20;;;;;;;13.34;59.23;101539.90;107795;1295;22018;-78
2023/05/19 09:10:01;;;;;;;7.10;2.80;;;;;;;13.41;59.41;101542.16;107356;1299;23823;-79
2023/05/19 09:12:33;;;;;;;4.90;2.90;;;;;;;13.47;59.27;101540.71;107383;1295;23111;-77
2023/05/19 09:15:04;;;;;;;5.40;2.90;;;;;;;13.61;59.21;101540.82;107872;1289;22052;-77
2023/05/19 09:17:37;;;;;;;10.50;3.90;;;;;;;13.68;58.93;101537.64;107995;1285;21995;-78
2023/05/19 09:20:11;;;;;;;5.30;3.40;;;;;;;13.77;59.01;101535.95;108527;1284;23052;-78
2023/05/19 09:22:46;;;;;;;8.60;3.40;;;;;;;13.92;59.19;101531.26;108524;1280;21990;-77
2023/05/19 09:25:27;;;;;;;7.30;3.70;;;;;;;14.08;58.88;101533.36;108621;1281;22001;-80
2023/05/19 09:28:00;;;;;;;9.30;4.10;;;;;;;14.16;58.28;101529.25;108911;1280;23713;-81
2023/05/19 09:30:33;;;;;;;4.50;2.90;;;;;;;14.20;57.93;101525.27;108919;1281;22010;-82
2023/05/19 09:33:08;;;;;;;6.80;3.80;;;;;;;14.26;57.83;101521.20;109008;1280;23071;-81
2023/05/19 09:35:46;;;;;;;7.40;3.40;;;;;;;14.33;57.71;101521.81;109251;1262;21982;-83
2023/05/19 09:38:30;;;;;;;9.00;3.20;;;;;;;14.33;57.29;101517.80;109268;1275;21996;-81
2023/05/19 09:41:12;;;;;;;6.70;3.10;;;;;;;14.33;57.00;101521.13;109275;1275;22003;-82
2023/05/19 09:43:56;;;;;;;4.00;3.20;;;;;;;14.25;56.65;101518.77;109145;1281;22000;-81
2023/05/19 09:46:27;;;;;;;4.60;2.70;;;;;;;14.17;56.57;101520.62;108820;1280;21991;-81
2023/05/19 09:48:58;;;;;;;9.70;3.00;;;;;;;14.10;56.87;101517.02;108484;1285;22858;-81
2023/05/19 09:51:28;;;;;;;3.90;3.10;;;;;;;14.13;57.04;101517.27;108345;1285;22758;-81
2023/05/19 09:53:58;;;;;;;4.30;3.10;;;;;;;14.14;57.19;101518.64;108554;1285;22443;-81
2023/05/19 09:56:33;;;;;;;7.60;2.70;;;;;;;14.16;57.35;101518.92;108591;1285;22005;-81
2023/05/19 09:59:03;;;;;;;6.60;3.20;;;;;;;14.18;57.30;101512.88;108381;1285;22058;-81
2023/05/19 10:01:35;;;;;;;4.70;2.60;;;;;;;14.29;57.54;101510.59;108703;1280;23615;-80
2023/05/19 10:04:05;;;;;;;4.40;3.00;;;;;;;14.44;57.72;101507.79;108826;1280;24270;-80
2023/05/19 10:06:35;;;;;;;8.80;3.20;;;;;;;14.58;57.27;101506.62;108870;1275;23015;-81
2023/05/19 10:09:14;;;;;;;4.20;2.70;;;;;;;14.70;56.76;101508.27;109473;1261;23115;-81
2023/05/19 10:11:59;;;;;;;4.50;3.20;;;;;;;14.80;56.27;101505.66;109037;1281;22453;-82
2023/05/19 10:15:03;;;;;;;9.70;3.50;;;;;;;14.92;56.42;101504.16;109225;1281;23423;-82
2023/05/19 10:17:41;;;;;;;3.30;2.50;;;;;;;15.00;55.63;101503.30;109086;1281;23721;-83
2023/05/19 10:20:19;;;;;;;5.40;3.30;;;;;;;14.97;55.06;101501.14;109011;1280;22024;-82
2023/05/19 10:22:59;;;;;;;;;;;;;;;14.93;54.72;101500.40;109092;1280;22465;-82
2023/05/19 10:25:48;;;;;;;3.90;2.80;;;;;;;14.74;54.78;101500.60;109233;1280;24291;-82
2023/05/19 10:28:26;;;;;;;4.70;2.20;;;;;;;14.61;54.75;101502.11;109240;1280;23623;-81
2023/05/19 10:31:01;;;;;;;4.90;2.40;;;;;;;14.50;54.99;101499.85;109073;1280;21971;-82
2023/05/19 10:34:29;;;;;;;4.40;2.80;;;;;;;14.45;55.17;101503.89;109037;1280;22006;-81
2023/05/19 10:37:33;;;;;;;6.30;2.70;;;;;;;14.35;55.36;101504.07;108827;1280;23753;-81
2023/05/19 10:40:19;;;;;;;4.70;3.20;;;;;;;14.32;55.74;101503.13;108716;1281;22002;-82
2023/05/19 10:43:06;;;;;;;3.70;2.20;;;;;;;14.36;55.83;101502.30;108796;1281;21995;-81
2023/05/19 10:46:03;;;;;;;8.20;2.70;;;;;;;14.41;56.02;101502.83;109095;1281;22564;-82
2023/05/19 10:48:53;;;;;;;5.60;2.80;;;;;;;14.52;56.51;101502.41;109053;1281;22029;-81
2023/05/19 10:51:32;;;;;;;3.90;2.20;;;;;;;14.63;56.16;101507.66;109016;1281;23644;-81
2023/05/19 10:54:16;;;;;;;3.30;1.90;;;;;;;14.62;55.74;101500.88;108900;1280;22071;-81
2023/05/19 10:56:58;;;;;;;3.30;2.10;;;;;;;14.59;55.64;101499.56;109021;1268;22021;-81
2023/05/19 10:59:39;;;;;;;;;;;;;;;14.65;55.78;101497.25;109089;1280;22843;-80
2023/05/19 11:02:30;;;;;;;8.40;2.40;;;;;;;14.70;56.16;101496.01;109004;1280;22929;-80
2023/05/19 11:05:15;;;;;;;4.90;3.10;;;;;;;14.79;55.42;101495.35;108682;1286;21985;-80
2023/05/19 11:08:19;;;;;;;2.20;1.90;;;;;;;14.86;55.17;101495.98;108499;1287;22066;-82
2023/05/19 11:11:17;;;;;;;3.00;2.50;;;;;;;14.89;55.08;101494.63;108464;1287;22004;-79
2023/05/19 11:14:35;;;;;;;3.70;2.40;;;;;;;14.97;55.05;101495.70;108672;1282;22001;-78
2023/05/19 11:17:21;;;;;;;8.80;2.70;;;;;;;15.01;54.64;101497.31;108677;1282;22794;-80
2023/05/19 11:20:20;;;;;;;7.00;2.60;;;;;;;15.02;54.65;101494.48;108646;1280;22096;-81
2023/05/19 11:23:08;;;;;;;;;;;;;;;15.04;54.31;101494.75;108972;1275;21966;-85
2023/05/19 11:25:57;;;;;;;5.40;2.70;;;;;;;14.93;54.24;101497.44;109438;1267;21982;-86
2023/05/19 11:29:04;;;;;;;6.00;4.80;;;;;;;14.83;54.27;101494.84;109172;1275;21984;-81
2023/05/19 11:31:50;;;;;;;10.60;4.40;;;;;;;14.82;54.78;101495.39;109256;1275;21992;-81
2023/05/19 11:34:50;;;;;;;3.70;3.00;;;;;;;14.80;54.75;101495.48;109132;1275;21979;-82
2023/05/19 11:37:28;;;;;;;5.00;3.10;;;;;;;14.76;54.84;101496.49;109359;1275;22014;-83
2023/05/19 11:40:09;;;;;;;4.60;3.90;;;;;;;14.74;55.06;101498.18;109334;1275;22012;-82
2023/05/19 11:42:46;;;;;;;6.50;3.10;;;;;;;14.78;55.32;101492.23;109288;1275;23012;-82
2023/05/19 11:45:25;;;;;;;5.70;3.10;;;;;;;14.85;55.57;101492.14;109183;1275;23047;-82
2023/05/19 11:47:58;;;;;;;4.10;2.80;;;;;;;14.97;55.57;101493.10;108879;1281;22056;-83
2023/05/19 11:50:37;;;;;;;4.60;3.30;;;;;;;14.98;55.05;101489.37;108830;1281;22017;-81
2023/05/19 11:53:20;;;;;;;4.20;2.80;;;;;;;14.94;54.79;101494.27;108499;1281;23698;-81
2023/05/19 11:55:55;;;;;;;10.80;3.40;;;;;;;14.81;54.65;101489.48;108580;1288;22018;-82
2023/05/19 11:58:30;;;;;;;7.30;2.90;;;;;;;14.72;55.13;101484.40;108671;1288;22003;-81
2023/05/19 12:01:05;;;;;;;5.50;3.30;;;;;;;14.64;55.34;101485.19;108641;1288;21999;-83
2023/05/19 12:03:56;;;;;;;6.00;3.20;;;;;;;14.61;55.77;101485.13;108659;1288;23046;-82
2023/05/19 12:06:36;;;;;;;7.40;3.70;;;;;;;14.65;55.92;101489.91;108757;1282;22015;-82
2023/05/19 12:09:31;;;;;;;12.80;6.70;;;;;;;14.67;56.25;101490.72;108989;1282;22438;-83
2023/05/19 12:12:28;;;;;;;7.40;4.00;;;;;;;14.75;56.50;101493.73;109338;1274;21996;-81
2023/05/19 12:15:15;;;;;;;3.50;2.70;;;;;;;14.82;56.32;101497.52;109365;1275;21992;-82
2023/05/19 12:18:03;;;;;;;3.60;2.90;;;;;;;14.76;56.06;101496.86;109497;1275;21960;-81
2023/05/19 12:20:38;;;;;;;4.30;3.40;;;;;;;14.74;56.38;101494.98;108941;1280;21998;-81
2023/05/19 12:23:11;;;;;;;4.10;3.60;;;;;;;14.74;56.24;101498.33;109041;1281;22025;-81
2023/05/19 12:25:47;;;;;;;4.10;3.20;;;;;;;14.63;55.98;101492.77;108915;1285;22861;-82
2023/05/19 12:28:18;;;;;;;4.60;3.20;;;;;;;14.53;56.32;101492.07;108848;1285;22058;-81
2023/05/19 12:30:54;;;;;;;5.40;3.70;;;;;;;14.47;56.46;101494.04;108721;1283;22023;-81
2023/05/19 12:33:43;;;;;;;6.00;3.50;;;;;;;14.38;56.77;101493.27;108493;1288;22007;-82
2023/05/19 12:36:50;;;;;;;8.10;3.30;;;;;;;14.35;57.12;101496.02;108357;1286;187591;-82
2023/05/19 12:39:24;;;;;;;5.10;3.10;;;;;;;14.32;56.99;101501.73;108402;1288;22040;-81